Time;durP1;ratioP1;P1;durP2;ratioP2;P2;SDS_P1;SDS_P2;PMS_P1;PMS_P2;Temp;Humidity;BMP_temperature;BMP_pressure;BME280_temperature;BME280_humidity;BME280_pressure;Samples;Min_cycle;Max_cycle;Signal;HPM_P1;HPM_P2
2023/12/16 00:01:04;;;;;;;14.65;5.00;;;;;;;11.39;58.17;103820.56;4754393;29;123321;-73
2023/12/16 00:03:31;;;;;;;16.98;4.70;;;;;;;11.39;58.12;103831.19;4775262;29;122956;-73
2023/12/16 00:05:58;;;;;;;15.43;4.47;;;;;;;11.39;58.17;103836.47;4760526;29;119512;-70
2023/12/16 00:08:25;;;;;;;11.57;4.00;;;;;;;11.38;58.05;103834.72;4758383;29;119880;-71
2023/12/16 00:10:53;;;;;;;17.40;4.72;;;;;;;11.38;58.09;103840.03;4765261;29;123649;-71
2023/12/16 00:13:23;;;;;;;12.18;4.80;;;;;;;11.39;58.17;103841.78;4766226;29;123960;-71
2023/12/16 00:15:50;;;;;;;15.43;4.93;;;;;;;11.41;58.20;103833.84;4771796;29;119661;-71
2023/12/16 00:18:17;;;;;;;15.90;5.00;;;;;;;11.42;58.20;103825.88;4774702;29;119100;-73
2023/12/16 00:20:46;;;;;;;17.38;5.25;;;;;;;11.41;57.98;103837.38;4753397;29;124385;-71
2023/12/16 00:23:13;;;;;;;19.73;5.63;;;;;;;11.41;58.14;103834.72;4755792;29;124137;-71
2023/12/16 00:25:40;;;;;;;17.42;4.65;;;;;;;11.41;58.13;103840.03;4772227;29;119755;-70
2023/12/16 00:28:07;;;;;;;13.75;5.18;;;;;;;11.41;58.18;103821.44;4758582;29;118149;-71
2023/12/16 00:30:34;;;;;;;14.90;4.80;;;;;;;11.43;58.12;103826.75;4742497;29;123649;-71
2023/12/16 00:33:01;;;;;;;14.80;5.40;;;;;;;11.41;58.06;103818.78;4756450;29;124679;-71
2023/12/16 00:35:29;;;;;;;12.10;5.25;;;;;;;11.41;58.09;103813.47;4760855;29;119662;-71
2023/12/16 00:37:56;;;;;;;18.65;5.22;;;;;;;11.42;58.02;103804.66;4774603;29;120045;-71
2023/12/16 00:40:23;;;;;;;16.15;5.65;;;;;;;11.42;57.82;103809.97;4769063;29;124301;-71
2023/12/16 00:42:51;;;;;;;16.88;4.85;;;;;;;11.42;57.97;103809.97;4768190;29;123129;-71
2023/12/16 00:45:18;;;;;;;19.23;6.32;;;;;;;11.42;58.06;103820.56;4775710;29;119516;-71
2023/12/16 00:47:47;;;;;;;14.63;5.05;;;;;;;11.43;57.82;103816.13;4755945;29;118761;-71
2023/12/16 00:50:15;;;;;;;17.23;5.43;;;;;;;11.43;57.98;103817.03;4773448;29;124410;-72
2023/12/16 00:52:42;;;;;;;18.30;5.57;;;;;;;11.44;57.87;103828.53;4756571;29;123583;-71
2023/12/16 00:55:10;;;;;;;15.00;5.40;;;;;;;11.42;57.95;103823.22;4767085;29;120420;-71
2023/12/16 00:57:38;;;;;;;13.00;5.07;;;;;;;11.43;58.00;103827.66;4767158;29;119764;-72
2023/12/16 01:00:07;;;;;;;16.92;5.93;;;;;;;11.43;57.95;103822.34;4759248;29;124574;-71
2023/12/16 01:02:34;;;;;;;14.15;5.78;;;;;;;11.42;57.92;103831.19;4750557;29;124654;-72
2023/12/16 01:05:01;;;;;;;17.08;5.90;;;;;;;11.43;57.52;103826.75;4760085;29;118473;-72
2023/12/16 01:07:28;;;;;;;15.50;5.13;;;;;;;11.41;57.60;103818.78;4776337;29;119049;-71
2023/12/16 01:09:56;;;;;;;15.73;5.13;;;;;;;11.41;57.79;103823.22;4763386;29;124944;-71
2023/12/16 01:12:23;;;;;;;16.38;4.95;;;;;;;11.39;57.80;103825.88;4774385;29;123888;-71
2023/12/16 01:14:50;;;;;;;15.15;5.35;;;;;;;11.39;57.84;103825.88;4753500;29;120159;-71
2023/12/16 01:17:17;;;;;;;14.30;5.20;;;;;;;11.41;57.73;103818.78;4768455;29;119358;-71
2023/12/16 01:19:44;;;;;;;17.50;4.88;;;;;;;11.42;57.47;103815.25;4768932;29;124193;-71
2023/12/16 01:22:13;;;;;;;15.35;4.93;;;;;;;11.42;57.75;103809.97;4775428;29;123744;-72
2023/12/16 01:24:40;;;;;;;14.98;4.85;;;;;;;11.42;57.80;103809.09;4771202;29;119201;-72
2023/12/16 01:27:07;;;;;;;15.38;4.40;;;;;;;11.42;57.71;103809.97;4754826;29;119681;-71
2023/12/16 01:29:34;;;;;;;15.25;4.75;;;;;;;11.42;57.51;103804.66;4757669;29;123546;-71
2023/12/16 01:32:01;;;;;;;15.27;4.57;;;;;;;11.42;57.44;103809.97;4769299;29;123828;-71
2023/12/16 01:34:28;;;;;;;10.82;4.28;;;;;;;11.41;57.61;103808.19;4775037;29;120081;-71
2023/12/16 01:36:56;;;;;;;14.65;4.40;;;;;;;11.42;57.57;103804.66;4757949;29;119116;-71
2023/12/16 01:39:24;;;;;;;15.85;4.57;;;;;;;11.42;57.52;103809.97;4753414;29;122819;-72
2023/12/16 01:41:51;;;;;;;14.27;4.43;;;;;;;11.42;57.37;103815.25;4772298;29;124102;-71
2023/12/16 01:44:18;;;;;;;12.55;4.18;;;;;;;11.41;57.45;103810.81;4776664;29;120066;-71
2023/12/16 01:46:46;;;;;;;14.60;4.63;;;;;;;11.43;57.33;103811.75;4764039;29;119906;-71
2023/12/16 01:49:14;;;;;;;14.02;3.78;;;;;;;11.44;57.25;103802.88;4756853;29;123865;-71
2023/12/16 01:51:43;;;;;;;11.40;4.13;;;;;;;11.44;57.51;103797.56;4767757;29;123346;-71
2023/12/16 01:54:12;;;;;;;16.17;4.38;;;;;;;11.46;57.34;103801.09;4768576;29;118577;-71
2023/12/16 01:56:39;;;;;;;16.55;4.10;;;;;;;11.46;57.19;103790.47;4774931;29;119213;-71
2023/12/16 01:59:07;;;;;;;16.75;4.22;;;;;;;11.47;57.17;103792.25;4760483;29;122994;-72
2023/12/16 02:01:34;;;;;;;14.43;4.13;;;;;;;11.47;57.25;103792.25;4755650;29;124020;-72
2023/12/16 02:04:01;;;;;;;13.40;4.18;;;;;;;11.47;57.20;103797.56;4765987;29;118618;-71
2023/12/16 02:06:28;;;;;;;13.52;3.90;;;;;;;11.48;57.18;103799.31;4738544;29;117952;-71
2023/12/16 02:08:56;;;;;;;16.10;4.30;;;;;;;11.47;57.18;103804.63;4770683;29;124009;-71
2023/12/16 02:11:23;;;;;;;11.30;3.88;;;;;;;11.46;57.01;103809.06;4771941;29;123889;-71
2023/12/16 02:13:51;;;;;;;13.95;4.40;;;;;;;11.44;57.05;103800.22;4764913;29;120321;-71
2023/12/16 02:16:18;;;;;;;10.75;3.95;;;;;;;11.42;57.04;103807.31;4759730;29;119342;-71
2023/12/16 02:18:45;;;;;;;12.27;3.65;;;;;;;11.39;57.00;103804.63;4767075;29;124198;-71
2023/12/16 02:21:12;;;;;;;9.45;3.65;;;;;;;11.36;57.11;103799.34;4778089;29;123929;-71
2023/12/16 02:23:41;;;;;;;14.30;3.38;;;;;;;11.34;56.94;103806.44;4756499;29;118584;-71
2023/12/16 02:26:08;;;;;;;10.90;3.10;;;;;;;11.34;57.19;103816.13;4775661;29;118422;-72
2023/12/16 02:28:35;;;;;;;13.40;3.72;;;;;;;11.32;57.15;103810.88;4767949;29;124105;-71
2023/12/16 02:31:03;;;;;;;14.63;3.70;;;;;;;11.33;57.15;103815.25;4770367;29;123893;-71
2023/12/16 02:33:30;;;;;;;12.60;3.60;;;;;;;11.31;57.09;103817.03;4767499;29;120194;-71
2023/12/16 02:36:00;;;;;;;10.85;3.28;;;;;;;11.30;56.87;103809.94;4776645;29;119702;-71
2023/12/16 02:38:27;;;;;;;8.55;3.10;;;;;;;11.29;56.97;103808.19;4757953;29;124714;-71
2023/12/16 02:40:54;;;;;;;12.05;3.05;;;;;;;11.27;56.92;103809.97;4768337;29;123836;-71
2023/12/16 02:43:21;;;;;;;13.18;3.30;;;;;;;11.25;57.00;103819.69;4753408;29;118750;-71
2023/12/16 02:45:48;;;;;;;15.40;3.90;;;;;;;11.24;57.10;103804.66;4765120;29;118741;-71
2023/12/16 02:48:16;;;;;;;9.82;3.50;;;;;;;11.21;56.97;103804.69;4766410;29;124478;-71
2023/12/16 02:50:43;;;;;;;11.05;3.17;;;;;;;11.19;56.83;103802.00;4746582;29;124470;-71
2023/12/16 02:53:10;;;;;;;10.15;3.17;;;;;;;11.17;57.00;103802.88;4772076;29;119641;-71
2023/12/16 02:55:38;;;;;;;11.35;3.40;;;;;;;11.15;56.51;103799.34;4778747;29;118836;-71
2023/12/16 02:58:05;;;;;;;10.32;3.10;;;;;;;11.12;56.78;103804.66;4777248;29;123542;-71
2023/12/16 03:00:32;;;;;;;9.55;2.90;;;;;;;11.09;56.81;103806.44;4765819;29;124056;-71
2023/12/16 03:02:59;;;;;;;11.50;3.30;;;;;;;11.05;56.73;103799.34;4771848;29;119048;-71
2023/12/16 03:05:26;;;;;;;11.25;3.42;;;;;;;11.03;56.74;103795.81;4763882;29;118836;-71
2023/12/16 03:07:54;;;;;;;14.02;3.22;;;;;;;10.99;56.76;103809.06;4770892;29;122181;-71
2023/12/16 03:10:21;;;;;;;12.80;2.95;;;;;;;10.96;56.88;103807.28;4773769;29;124141;-71
2023/12/16 03:12:48;;;;;;;15.27;3.38;;;;;;;10.94;57.11;103801.09;4774109;29;119353;-72
2023/12/16 03:15:15;;;;;;;13.88;3.35;;;;;;;10.91;56.87;103806.41;4767473;29;118778;-72
2023/12/16 03:17:43;;;;;;;17.38;2.85;;;;;;;10.88;56.95;103803.75;4776455;29;123474;-71
2023/12/16 03:20:11;;;;;;;11.30;3.08;;;;;;;10.86;56.82;103797.56;4778589;29;124058;-71
2023/12/16 03:22:39;;;;;;;10.75;3.30;;;;;;;10.85;56.75;103798.44;4776169;29;121050;-71
2023/12/16 03:25:06;;;;;;;13.07;2.80;;;;;;;10.82;56.85;103801.09;4770507;29;119880;-71
2023/12/16 03:27:34;;;;;;;9.80;2.97;;;;;;;10.80;56.74;103797.56;4776698;29;124108;-71
2023/12/16 03:30:02;;;;;;;6.93;2.80;;;;;;;10.78;56.96;103799.34;4770482;29;124228;-71
2023/12/16 03:32:29;;;;;;;10.73;3.17;;;;;;;10.76;56.94;103790.50;4749911;29;118575;-71
2023/12/16 03:34:56;;;;;;;10.10;2.95;;;;;;;10.73;56.81;103790.47;4754112;29;119052;-71
2023/12/16 03:37:23;;;;;;;10.27;3.28;;;;;;;10.70;57.06;103792.25;4775388;29;123219;-71
2023/12/16 03:39:51;;;;;;;11.25;3.08;;;;;;;10.67;56.98;103792.22;4773900;29;124020;-72
2023/12/16 03:42:18;;;;;;;10.50;3.22;;;;;;;10.65;56.95;103794.00;4765356;29;119058;-71
2023/12/16 03:44:46;;;;;;;9.93;2.95;;;;;;;10.62;57.16;103793.97;4740154;29;118048;-71
2023/12/16 03:47:14;;;;;;;10.23;2.90;;;;;;;10.60;57.07;103790.44;4770338;29;124284;-71
2023/12/16 03:49:41;;;;;;;11.90;3.35;;;;;;;10.58;57.15;103797.50;4754504;29;122992;-72
2023/12/16 03:52:09;;;;;;;12.10;3.10;;;;;;;10.57;57.06;103790.44;4765172;29;120094;-71
2023/12/16 03:54:36;;;;;;;6.32;3.05;;;;;;;10.54;56.93;103790.44;4775180;29;119122;-71
2023/12/16 03:57:03;;;;;;;8.55;2.88;;;;;;;10.54;56.97;103790.44;4768110;29;123886;-72
2023/12/16 03:59:31;;;;;;;8.70;2.95;;;;;;;10.52;56.95;103785.13;4759738;29;123475;-71
2023/12/16 04:01:58;;;;;;;14.27;3.42;;;;;;;10.51;57.08;103785.16;4769523;29;119359;-71
2023/12/16 04:04:26;;;;;;;10.15;2.90;;;;;;;10.49;57.29;103781.56;4770741;29;116931;-71
2023/12/16 04:06:58;;;;;;;12.23;3.30;;;;;;;10.48;57.13;103779.81;4757559;29;124288;-71
2023/12/16 04:09:25;;;;;;;13.98;3.25;;;;;;;10.47;57.23;103778.03;4755790;29;125598;-71
2023/12/16 04:11:53;;;;;;;12.52;3.47;;;;;;;10.45;56.94;103774.50;4770577;29;120168;-71
2023/12/16 04:14:20;;;;;;;13.68;3.67;;;;;;;10.43;57.30;103777.13;4771223;29;120775;-71
2023/12/16 04:16:47;;;;;;;8.55;3.35;;;;;;;10.42;57.31;103790.41;4773863;29;123714;-71
2023/12/16 04:19:15;;;;;;;13.02;3.50;;;;;;;10.40;57.35;103797.47;4771543;29;124064;-72
2023/12/16 04:21:42;;;;;;;13.30;3.63;;;;;;;10.40;57.16;103792.19;4764467;29;119558;-71
2023/12/16 04:24:09;;;;;;;10.48;3.28;;;;;;;10.37;57.11;103793.03;4771115;29;119629;-71
2023/12/16 04:26:37;;;;;;;9.95;3.25;;;;;;;10.36;57.45;103785.06;4758322;29;124143;-71
2023/12/16 04:29:04;;;;;;;12.90;3.22;;;;;;;10.35;57.48;103778.91;4774617;29;123866;-71
2023/12/16 04:31:31;;;;;;;14.02;3.58;;;;;;;10.35;57.63;103784.19;4771357;29;121009;-71
2023/12/16 04:33:58;;;;;;;12.27;3.78;;;;;;;10.33;57.53;103792.13;4765381;29;118920;-71
2023/12/16 04:36:25;;;;;;;11.70;3.30;;;;;;;10.36;57.54;103790.38;4751659;29;123614;-71
2023/12/16 04:38:52;;;;;;;6.45;3.15;;;;;;;10.38;57.63;103794.81;4769784;29;123882;-72
2023/12/16 04:41:20;;;;;;;14.68;3.72;;;;;;;10.40;57.70;103793.06;4774418;29;119999;-72
2023/12/16 04:43:47;;;;;;;15.32;3.85;;;;;;;10.42;57.55;103790.41;4767375;29;119800;-71
2023/12/16 04:46:20;;;;;;;13.75;3.80;;;;;;;10.43;57.89;103784.22;4767390;29;124537;-71
2023/12/16 04:48:48;;;;;;;15.27;3.40;;;;;;;10.46;57.81;103781.59;4771672;29;125003;-71
2023/12/16 04:51:15;;;;;;;17.40;3.53;;;;;;;10.46;57.67;103784.25;4750050;29;119348;-72
2023/12/16 04:53:42;;;;;;;9.90;3.10;;;;;;;10.49;57.68;103782.47;4770029;29;119255;-71
2023/12/16 04:56:09;;;;;;;14.63;4.13;;;;;;;10.50;57.98;103778.06;4776936;29;124062;-71
2023/12/16 04:58:37;;;;;;;14.10;3.70;;;;;;;10.53;57.97;103778.06;4770690;29;124198;-71
2023/12/16 05:01:04;;;;;;;15.80;3.50;;;;;;;10.55;57.95;103781.63;4780012;29;119884;-71
2023/12/16 05:03:32;;;;;;;12.32;3.60;;;;;;;10.57;57.68;103784.25;4774494;29;119854;-71
2023/12/16 05:05:59;;;;;;;13.07;3.92;;;;;;;10.58;57.81;103786.91;4765753;29;124755;-71
2023/12/16 05:08:26;;;;;;;13.50;3.80;;;;;;;10.60;57.74;103779.84;4771949;29;123203;-71
2023/12/16 05:10:54;;;;;;;16.35;3.60;;;;;;;10.60;57.87;103785.13;4774779;29;119644;-71
2023/12/16 05:13:21;;;;;;;10.70;3.67;;;;;;;10.60;57.82;103785.13;4744753;29;117822;-71
2023/12/16 05:15:48;;;;;;;12.80;3.75;;;;;;;10.60;57.77;103785.13;4773766;29;124040;-71
2023/12/16 05:18:16;;;;;;;12.52;3.60;;;;;;;10.61;57.68;103791.34;4771891;29;123920;-72
2023/12/16 05:20:43;;;;;;;14.95;3.75;;;;;;;10.59;57.69;103788.69;4750426;29;118922;-71
2023/12/16 05:23:10;;;;;;;13.10;3.60;;;;;;;10.58;57.87;103792.19;4773048;29;119047;-71
2023/12/16 05:25:41;;;;;;;12.43;3.45;;;;;;;10.57;57.83;103795.75;4778163;29;124340;-71
2023/12/16 05:28:09;;;;;;;15.80;4.00;;;;;;;10.56;57.97;103793.97;4753301;29;127346;-71
2023/12/16 05:30:36;;;;;;;12.23;3.72;;;;;;;10.55;57.80;103793.97;4751903;29;119022;-71
2023/12/16 05:33:03;;;;;;;13.73;4.05;;;;;;;10.52;57.78;103787.78;4772012;29;119005;-71
2023/12/16 05:35:31;;;;;;;14.95;4.45;;;;;;;10.52;57.80;103792.19;4778981;29;123474;-71
2023/12/16 05:37:59;;;;;;;15.48;3.80;;;;;;;10.51;57.92;103790.44;4779259;29;124020;-71
2023/12/16 05:40:26;;;;;;;10.65;3.80;;;;;;;10.49;57.97;103792.16;4779148;29;119419;-71
2023/12/16 05:42:53;;;;;;;15.27;3.88;;;;;;;10.48;57.97;103790.41;4774522;29;118939;-71
2023/12/16 05:45:21;;;;;;;13.50;3.75;;;;;;;10.46;57.88;103802.78;4758326;29;123971;-73
2023/12/16 05:47:48;;;;;;;15.93;3.83;;;;;;;10.45;57.99;103795.69;4758935;29;125020;-71
2023/12/16 05:50:15;;;;;;;13.32;3.70;;;;;;;10.44;58.01;103799.25;4767718;29;120299;-71
2023/12/16 05:52:43;;;;;;;15.73;4.07;;;;;;;10.45;57.70;103801.00;4749579;29;120195;-71
2023/12/16 05:55:10;;;;;;;12.73;3.45;;;;;;;10.42;58.28;103801.00;4770050;29;124027;-72
2023/12/16 05:57:38;;;;;;;16.52;3.60;;;;;;;10.41;58.11;103809.81;4774006;29;124224;-71
2023/12/16 06:00:08;;;;;;;13.38;4.03;;;;;;;10.38;58.21;103809.81;4771554;29;119512;-71
2023/12/16 06:02:36;;;;;;;15.43;3.90;;;;;;;10.34;58.20;103801.00;4762411;29;119126;-72
2023/12/16 06:05:03;;;;;;;13.55;4.20;;;;;;;10.31;58.23;103799.19;4778044;29;124054;-71
2023/12/16 06:07:31;;;;;;;17.90;3.83;;;;;;;10.28;58.11;103796.50;4776357;29;123654;-71
2023/12/16 06:09:58;;;;;;;14.82;4.22;;;;;;;10.26;58.05;103790.31;4772266;29;119499;-71
2023/12/16 06:12:25;;;;;;;15.70;4.03;;;;;;;10.25;58.20;103792.97;4776062;29;119675;-71
2023/12/16 06:14:52;;;;;;;15.30;3.90;;;;;;;10.23;58.41;103795.59;4750903;29;123903;-71
2023/12/16 06:17:20;;;;;;;16.70;3.85;;;;;;;10.21;58.33;103797.38;4758085;29;123524;-71
2023/12/16 06:19:47;;;;;;;14.27;3.88;;;;;;;10.20;58.15;103800.88;4772746;29;119167;-71
2023/12/16 06:22:14;;;;;;;9.98;3.20;;;;;;;10.18;58.57;103792.03;4764321;29;119056;-71
2023/12/16 06:24:41;;;;;;;19.15;3.90;;;;;;;10.17;58.35;103795.59;4757518;29;123859;-71
2023/12/16 06:27:09;;;;;;;13.40;3.63;;;;;;;10.14;58.31;103792.91;4763773;29;123914;-71
2023/12/16 06:29:36;;;;;;;12.57;3.75;;;;;;;10.13;58.20;103783.19;4773770;29;118591;-71
2023/12/16 06:32:03;;;;;;;18.90;3.78;;;;;;;10.11;58.60;103791.16;4753263;29;118734;-71
2023/12/16 06:34:30;;;;;;;13.05;3.20;;;;;;;10.09;58.42;103792.00;4746957;29;124819;-71
2023/12/16 06:36:57;;;;;;;11.10;3.60;;;;;;;10.07;58.57;103784.03;4772874;29;123939;-71
2023/12/16 06:39:24;;;;;;;15.43;3.60;;;;;;;10.07;58.55;103793.75;4778474;29;121021;-71
2023/12/16 06:41:51;;;;;;;15.30;3.78;;;;;;;10.05;58.59;103785.81;4756154;29;120114;-71
2023/12/16 06:44:19;;;;;;;12.77;3.63;;;;;;;10.03;58.62;103781.38;4776375;29;124962;-71
2023/12/16 06:46:46;;;;;;;10.32;3.22;;;;;;;10.03;58.64;103786.69;4773540;29;124279;-71
2023/12/16 06:49:13;;;;;;;10.02;3.60;;;;;;;10.01;58.50;103784.03;4778762;29;119479;-71
2023/12/16 06:51:40;;;;;;;13.80;4.13;;;;;;;10.00;58.66;103786.66;4768626;29;118882;-71
2023/12/16 06:54:09;;;;;;;17.10;3.78;;;;;;;9.99;58.85;103796.38;4773185;29;123873;-72
2023/12/16 06:56:36;;;;;;;11.65;3.30;;;;;;;9.99;58.80;103798.16;4771517;29;123648;-71
2023/12/16 06:59:03;;;;;;;19.58;3.90;;;;;;;9.97;58.69;103802.56;4773964;29;119872;-73
2023/12/16 07:01:31;;;;;;;13.90;3.55;;;;;;;9.96;58.75;103800.75;4752789;29;119235;-70
2023/12/16 07:03:58;;;;;;;17.20;3.88;;;;;;;9.96;58.71;103796.34;4748402;29;122922;-70
2023/12/16 07:06:25;;;;;;;15.73;3.42;;;;;;;9.96;58.88;103795.47;4773712;29;124013;-70
2023/12/16 07:08:52;;;;;;;12.90;3.33;;;;;;;9.96;58.85;103800.75;4751275;29;118518;-70
2023/12/16 07:11:20;;;;;;;15.55;3.63;;;;;;;9.94;58.72;103793.72;4757134;29;118713;-70
2023/12/16 07:13:48;;;;;;;5.72;2.10;;;;;;;9.93;58.78;103797.22;4761371;29;124220;-71
2023/12/16 07:16:16;;;;;;;8.68;2.17;;;;;;;9.92;58.85;103799.88;4760946;29;123913;-71
2023/12/16 07:18:44;;;;;;;10.88;2.15;;;;;;;9.93;58.89;103813.13;4765022;29;119484;-70
2023/12/16 07:21:11;;;;;;;10.63;2.50;;;;;;;9.92;59.03;103827.22;4774218;29;119678;-71
2023/12/16 07:23:38;;;;;;;5.07;1.95;;;;;;;9.91;58.85;103828.09;4766858;29;123293;-71
2023/12/16 07:26:05;;;;;;;10.65;2.22;;;;;;;9.90;58.98;103828.97;4758177;29;123886;-71
2023/12/16 07:28:32;;;;;;;4.88;1.90;;;;;;;9.89;58.97;103837.81;4760732;29;120520;-71
2023/12/16 07:30:59;;;;;;;8.38;2.22;;;;;;;9.88;59.15;103836.03;4757839;29;120260;-71
2023/12/16 07:33:27;;;;;;;11.15;2.20;;;;;;;9.87;59.05;103839.56;4774862;29;124072;-71
2023/12/16 07:35:54;;;;;;;8.77;2.08;;;;;;;9.86;59.05;103837.78;4777290;29;124043;-72
2023/12/16 07:38:23;;;;;;;7.15;2.00;;;;;;;9.86;58.97;103843.06;4748469;29;118748;-72
2023/12/16 07:40:50;;;;;;;11.52;2.20;;;;;;;9.86;58.91;103842.19;4773226;29;119821;-72
2023/12/16 07:43:17;;;;;;;8.65;2.08;;;;;;;9.85;58.89;103836.03;4770112;29;124334;-71
2023/12/16 07:45:46;;;;;;;6.85;2.00;;;;;;;9.85;58.96;103836.03;4775236;29;124336;-71
2023/12/16 07:48:52;;;;;;;6.13;1.90;;;;;;;9.82;59.10;103836.00;4763217;29;119999;-71
2023/12/16 07:51:22;;;;;;;7.40;1.98;;;;;;;9.80;59.15;103835.09;4766100;29;119555;-72
2023/12/16 07:53:49;;;;;;;11.38;2.50;;;;;;;9.79;58.90;103833.31;4776589;29;123456;-74
2023/12/16 07:56:22;;;;;;;7.50;2.10;;;;;;;9.79;59.03;103830.66;4775985;29;123882;-70
2023/12/16 07:58:50;;;;;;;10.10;2.15;;;;;;;9.79;59.01;103838.59;4752943;29;119647;-71
2023/12/16 08:01:18;;;;;;;12.15;2.40;;;;;;;9.78;59.02;103842.16;4772862;29;119307;-70
2023/12/16 08:03:56;;;;;;;6.65;2.03;;;;;;;9.77;59.16;103848.31;4773648;29;124062;-71
2023/12/16 08:06:26;;;;;;;7.53;2.08;;;;;;;9.79;59.17;103857.13;4783628;29;122841;-71
2023/12/16 08:08:53;;;;;;;4.93;1.67;;;;;;;9.79;59.35;103851.84;4761047;29;118524;-72
2023/12/16 08:11:20;;;;;;;7.45;2.28;;;;;;;9.80;59.33;103858.91;4775877;29;119306;-71
2023/12/16 08:13:47;;;;;;;9.50;2.20;;;;;;;9.83;59.51;103853.66;4768944;29;124699;-71
2023/12/16 08:16:15;;;;;;;10.43;2.10;;;;;;;9.85;59.43;103859.84;4778091;29;124570;-72
2023/12/16 08:18:42;;;;;;;9.65;2.10;;;;;;;9.89;59.36;103864.28;4760088;29;118854;-72
2023/12/16 08:21:09;;;;;;;4.53;2.03;;;;;;;9.89;59.29;103869.56;4770570;29;120350;-71
2023/12/16 08:23:36;;;;;;;11.30;2.15;;;;;;;9.93;59.45;103858.13;4754244;29;123755;-71
2023/12/16 08:26:08;;;;;;;4.95;2.22;;;;;;;9.96;59.53;103859.00;4772092;29;124489;-71
2023/12/16 08:28:40;;;;;;;7.22;2.03;;;;;;;9.98;59.38;103859.91;4767631;29;119235;-71
2023/12/16 08:31:07;;;;;;;9.57;2.33;;;;;;;9.98;59.59;103863.44;4768933;29;119279;-71
2023/12/16 08:33:35;;;;;;;7.82;2.03;;;;;;;10.02;59.49;103870.53;4771979;29;123998;-71
2023/12/16 08:36:03;;;;;;;4.95;2.00;;;;;;;10.04;59.48;103863.50;4777358;29;123660;-71
2023/12/16 08:38:32;;;;;;;10.95;2.22;;;;;;;10.07;59.44;103862.63;4750827;29;117893;-71
2023/12/16 08:40:59;;;;;;;7.47;2.28;;;;;;;10.10;59.73;103862.63;4754129;29;118465;-71
2023/12/16 08:43:28;;;;;;;9.35;2.28;;;;;;;10.13;59.60;103863.53;4769828;29;124433;-70
2023/12/16 08:46:16;;;;;;;7.35;1.88;;;;;;;10.18;59.79;103866.19;4752695;29;123082;-71
2023/12/16 08:48:43;;;;;;;9.63;1.95;;;;;;;10.21;59.64;103852.06;4768567;29;118609;-71
2023/12/16 08:51:10;;;;;;;8.88;2.05;;;;;;;10.24;59.53;103855.63;4775779;29;119258;-71
2023/12/16 08:53:37;;;;;;;9.38;1.80;;;;;;;10.28;59.60;103852.16;4768901;29;124008;-71
2023/12/16 08:56:05;;;;;;;5.97;1.90;;;;;;;10.31;59.49;103857.47;4775136;29;124464;-71
2023/12/16 08:58:32;;;;;;;11.18;2.00;;;;;;;10.36;59.64;103859.25;4774224;29;119170;-71
2023/12/16 09:00:59;;;;;;;5.50;1.80;;;;;;;10.38;59.40;103863.69;4770064;29;118965;-71
2023/12/16 09:03:26;;;;;;;7.88;2.25;;;;;;;10.44;59.60;103863.72;4769076;29;124260;-71
2023/12/16 09:05:54;;;;;;;9.88;2.17;;;;;;;10.49;59.62;103867.28;4768486;29;124617;-71
2023/12/16 09:08:21;;;;;;;8.50;1.98;;;;;;;10.56;59.63;103869.94;4752348;29;121370;-71
2023/12/16 09:10:48;;;;;;;13.93;1.92;;;;;;;10.61;59.86;103871.72;4763510;29;120977;-71
2023/12/16 09:13:15;;;;;;;9.25;1.88;;;;;;;10.66;59.63;103859.38;4766550;29;124503;-71
2023/12/16 09:15:42;;;;;;;10.50;1.90;;;;;;;10.74;59.69;103855.84;4764195;29;123649;-71
2023/12/16 09:18:10;;;;;;;10.50;1.92;;;;;;;10.80;59.67;103866.50;4767705;29;119312;-71
2023/12/16 09:20:38;;;;;;;10.85;1.92;;;;;;;10.86;59.88;103874.47;4767349;29;119326;-71
2023/12/16 09:23:05;;;;;;;9.52;1.88;;;;;;;10.94;59.84;103870.03;4770909;29;123985;-71
2023/12/16 09:25:32;;;;;;;8.93;2.10;;;;;;;11.01;59.97;103865.66;4746279;29;124988;-71
2023/12/16 09:27:59;;;;;;;3.85;1.73;;;;;;;11.08;59.91;103884.22;4769127;29;119164;-71
2023/12/16 09:30:27;;;;;;;7.75;1.90;;;;;;;11.15;59.70;103885.13;4766324;29;118261;-71
2023/12/16 09:32:54;;;;;;;7.15;2.38;;;;;;;11.21;59.85;103889.56;4772161;29;123872;-71
2023/12/16 09:35:21;;;;;;;10.30;2.15;;;;;;;11.27;59.87;103900.19;4779468;29;123559;-71
2023/12/16 09:37:49;;;;;;;10.60;1.98;;;;;;;11.33;59.82;103889.56;4774491;29;119640;-71
2023/12/16 09:40:16;;;;;;;7.80;2.28;;;;;;;11.40;59.98;103896.66;4769893;29;119048;-71
2023/12/16 09:42:45;;;;;;;10.02;1.90;;;;;;;11.44;59.68;103901.06;4766029;29;124517;-71
2023/12/16 09:45:15;;;;;;;7.20;1.90;;;;;;;11.48;59.78;103894.88;4774723;29;123540;-71
2023/12/16 09:47:45;;;;;;;8.20;2.50;;;;;;;11.53;59.80;103899.28;4763626;29;119040;-71
2023/12/16 09:50:12;;;;;;;7.30;2.00;;;;;;;11.56;59.78;103904.63;4768052;29;118350;-71
2023/12/16 09:52:39;;;;;;;9.75;2.03;;;;;;;11.59;59.66;103901.97;4775969;29;124230;-71
2023/12/16 09:55:07;;;;;;;7.57;2.47;;;;;;;11.63;59.78;103898.44;4771218;29;124448;-71
2023/12/16 09:57:36;;;;;;;14.18;2.63;;;;;;;11.67;59.77;103910.81;4772259;29;120541;-71
2023/12/16 10:00:04;;;;;;;8.27;2.30;;;;;;;11.72;59.83;103902.88;4775125;29;120487;-71
2023/12/16 10:02:33;;;;;;;6.15;1.92;;;;;;;11.77;59.82;103903.72;4762885;29;124845;-71
2023/12/16 10:05:02;;;;;;;9.43;3.05;;;;;;;11.83;59.79;103917.00;4775612;29;123509;-71
2023/12/16 10:07:30;;;;;;;8.55;2.42;;;;;;;11.87;59.65;103919.66;4747443;29;119512;-71
2023/12/16 10:09:57;;;;;;;13.35;2.80;;;;;;;11.92;59.68;103918.78;4763983;29;118533;-71
2023/12/16 10:12:32;;;;;;;8.35;2.40;;;;;;;11.94;59.87;103907.31;4773075;29;124389;-71
2023/12/16 10:14:59;;;;;;;13.23;2.70;;;;;;;12.00;59.68;103906.41;4776449;29;123988;-71
2023/12/16 10:17:28;;;;;;;11.80;3.30;;;;;;;12.04;59.82;103921.44;4770057;29;119993;-71
2023/12/16 10:19:55;;;;;;;13.30;2.55;;;;;;;12.05;59.72;103912.56;4757646;29;118897;-72
2023/12/16 10:22:22;;;;;;;12.93;2.88;;;;;;;12.09;59.90;103919.63;4766514;29;123705;-71
2023/12/16 10:24:50;;;;;;;8.40;2.75;;;;;;;12.11;60.12;103923.22;4764030;29;125937;-72
2023/12/16 10:27:18;;;;;;;10.40;2.78;;;;;;;12.13;59.85;103921.44;4773142;29;119342;-71
2023/12/16 10:29:46;;;;;;;8.82;2.58;;;;;;;12.15;59.83;103924.97;4770816;29;119440;-71
2023/12/16 10:32:29;;;;;;;13.85;3.20;;;;;;;12.17;59.83;103922.31;4757831;29;124327;-72
2023/12/16 10:34:56;;;;;;;11.18;3.20;;;;;;;12.19;59.80;103921.41;4761345;29;122803;-72
2023/12/16 10:37:23;;;;;;;10.55;3.10;;;;;;;12.17;59.55;103923.19;4775345;29;119289;-71
2023/12/16 10:39:51;;;;;;;10.32;3.15;;;;;;;12.16;59.68;103910.78;4774073;29;119181;-73
2023/12/16 10:42:18;;;;;;;8.82;3.25;;;;;;;12.18;59.81;103914.31;4768259;29;123852;-73
2023/12/16 10:44:46;;;;;;;11.95;3.53;;;;;;;12.18;59.83;103903.69;4775169;29;123911;-72
2023/12/16 10:47:19;;;;;;;10.52;3.53;;;;;;;12.20;59.83;103907.22;4770677;29;121144;-73
2023/12/16 10:49:46;;;;;;;10.18;3.20;;;;;;;12.22;59.87;103900.16;4761531;29;120340;-72
2023/12/16 10:52:19;;;;;;;12.85;3.63;;;;;;;12.23;59.88;103891.28;4765746;29;124542;-73
2023/12/16 10:54:51;;;;;;;9.95;3.78;;;;;;;12.25;59.88;103892.16;4766024;29;123722;-72
2023/12/16 10:57:29;;;;;;;15.23;4.03;;;;;;;12.26;60.00;103896.59;4767100;29;119183;-72
2023/12/16 11:00:04;;;;;;;13.30;3.80;;;;;;;12.29;59.91;103895.69;4766985;29;119078;-72
2023/12/16 11:03:02;;;;;;;14.48;3.97;;;;;;;12.31;60.15;103893.03;4768555;29;124195;-73
2023/12/16 11:05:32;;;;;;;12.02;3.60;;;;;;;12.34;59.93;103885.03;4767700;29;123929;-72
2023/12/16 11:08:04;;;;;;;11.45;3.80;;;;;;;12.38;60.03;103881.50;4764361;29;118998;-72
2023/12/16 11:10:31;;;;;;;10.63;3.80;;;;;;;12.41;60.13;103885.03;4770438;29;118804;-72
2023/12/16 11:13:03;;;;;;;13.93;4.65;;;;;;;12.43;60.08;103880.59;4766565;29;124704;-72
2023/12/16 11:15:31;;;;;;;11.07;3.40;;;;;;;12.46;60.16;103877.03;4761195;29;123162;-72